sensor_id;sensor_type;location;lat;lon;timestamp;temperature;humidity
76996;DHT22;65929;49.062;10.338;2023-08-17T00:00:54;20.00;84.70
76996;DHT22;65929;49.062;10.338;2023-08-17T00:01:55;20.00;84.70
76996;DHT22;65929;49.062;10.338;2023-08-17T00:02:56;20.00;84.60
76996;DHT22;65929;49.062;10.338;2023-08-17T00:03:58;20.00;84.50
76996;DHT22;65929;49.062;10.338;2023-08-17T00:04:59;20.00;84.50
76996;DHT22;65929;49.062;10.338;2023-08-17T00:05:59;20.10;84.30
76996;DHT22;65929;49.062;10.338;2023-08-17T00:07:01;20.10;84.30
76996;DHT22;65929;49.062;10.338;2023-08-17T00:08:02;20.10;84.20
76996;DHT22;65929;49.062;10.338;2023-08-17T00:09:03;20.10;84.20
76996;DHT22;65929;49.062;10.338;2023-08-17T00:10:05;20.10;84.10
76996;DHT22;65929;49.062;10.338;2023-08-17T00:11:07;20.10;84.50
76996;DHT22;65929;49.062;10.338;2023-08-17T00:12:08;20.10;84.70
76996;DHT22;65929;49.062;10.338;2023-08-17T00:13:09;20.00;84.80
76996;DHT22;65929;49.062;10.338;2023-08-17T00:14:10;20.00;84.80
76996;DHT22;65929;49.062;10.338;2023-08-17T00:15:11;20.00;84.60
76996;DHT22;65929;49.062;10.338;2023-08-17T00:16:12;20.00;84.60
76996;DHT22;65929;49.062;10.338;2023-08-17T00:17:13;20.00;84.70
76996;DHT22;65929;49.062;10.338;2023-08-17T00:18:14;20.00;85.00
76996;DHT22;65929;49.062;10.338;2023-08-17T00:19:15;20.00;85.00
76996;DHT22;65929;49.062;10.338;2023-08-17T00:20:16;20.00;84.90
76996;DHT22;65929;49.062;10.338;2023-08-17T00:21:17;20.00;85.10
76996;DHT22;65929;49.062;10.338;2023-08-17T00:22:18;20.00;85.30
76996;DHT22;65929;49.062;10.338;2023-08-17T00:23:19;20.00;85.40
76996;DHT22;65929;49.062;10.338;2023-08-17T00:24:21;20.00;85.40
76996;DHT22;65929;49.062;10.338;2023-08-17T00:25:22;20.00;85.40
76996;DHT22;65929;49.062;10.338;2023-08-17T00:26:24;20.00;85.30
76996;DHT22;65929;49.062;10.338;2023-08-17T00:27:26;20.00;85.20
76996;DHT22;65929;49.062;10.338;2023-08-17T00:28:27;20.00;85.10
76996;DHT22;65929;49.062;10.338;2023-08-17T00:29:28;20.00;85.00
76996;DHT22;65929;49.062;10.338;2023-08-17T00:30:29;20.00;85.20
76996;DHT22;65929;49.062;10.338;2023-08-17T00:31:30;20.00;85.50
76996;DHT22;65929;49.062;10.338;2023-08-17T00:32:31;20.00;85.60
76996;DHT22;65929;49.062;10.338;2023-08-17T00:33:32;20.00;85.70
76996;DHT22;65929;49.062;10.338;2023-08-17T00:34:32;20.00;85.90
76996;DHT22;65929;49.062;10.338;2023-08-17T00:35:33;20.00;86.00
76996;DHT22;65929;49.062;10.338;2023-08-17T00:36:34;20.00;86.20
76996;DHT22;65929;49.062;10.338;2023-08-17T00:37:35;20.00;86.60
76996;DHT22;65929;49.062;10.338;2023-08-17T00:38:36;20.00;86.70
76996;DHT22;65929;49.062;10.338;2023-08-17T00:39:37;20.00;86.90
76996;DHT22;65929;49.062;10.338;2023-08-17T00:40:38;20.00;87.20
76996;DHT22;65929;49.062;10.338;2023-08-17T00:41:41;20.00;87.20
76996;DHT22;65929;49.062;10.338;2023-08-17T00:42:42;20.00;87.10
76996;DHT22;65929;49.062;10.338;2023-08-17T00:43:43;20.00;87.20
76996;DHT22;65929;49.062;10.338;2023-08-17T00:44:44;20.00;87.80
76996;DHT22;65929;49.062;10.338;2023-08-17T00:45:46;20.00;87.90
76996;DHT22;65929;49.062;10.338;2023-08-17T00:46:47;20.00;87.90
76996;DHT22;65929;49.062;10.338;2023-08-17T00:47:48;20.00;88.00
76996;DHT22;65929;49.062;10.338;2023-08-17T00:48:50;20.00;88.00
76996;DHT22;65929;49.062;10.338;2023-08-17T00:49:51;20.00;88.10
76996;DHT22;65929;49.062;10.338;2023-08-17T00:50:52;19.90;88.50
76996;DHT22;65929;49.062;10.338;2023-08-17T00:51:54;19.90;88.10
76996;DHT22;65929;49.062;10.338;2023-08-17T00:52:56;19.80;88.30
76996;DHT22;65929;49.062;10.338;2023-08-17T00:53:59;19.80;88.60
76996;DHT22;65929;49.062;10.338;2023-08-17T00:55:00;19.70;88.90
76996;DHT22;65929;49.062;10.338;2023-08-17T00:56:03;19.70;89.30
76996;DHT22;65929;49.062;10.338;2023-08-17T00:57:06;19.70;89.70
76996;DHT22;65929;49.062;10.338;2023-08-17T00:58:07;19.50;89.90
76996;DHT22;65929;49.062;10.338;2023-08-17T00:59:08;19.50;90.10
76996;DHT22;65929;49.062;10.338;2023-08-17T01:00:11;19.50;90.30
76996;DHT22;65929;49.062;10.338;2023-08-17T01:01:12;19.50;90.70
76996;DHT22;65929;49.062;10.338;2023-08-17T01:02:13;19.40;91.00
76996;DHT22;65929;49.062;10.338;2023-08-17T01:03:15;19.40;91.20
76996;DHT22;65929;49.062;10.338;2023-08-17T01:04:17;19.40;91.20
76996;DHT22;65929;49.062;10.338;2023-08-17T01:05:18;19.40;91.10
76996;DHT22;65929;49.062;10.338;2023-08-17T01:06:19;19.50;91.10
76996;DHT22;65929;49.062;10.338;2023-08-17T01:07:21;19.50;91.00
76996;DHT22;65929;49.062;10.338;2023-08-17T01:08:22;19.50;90.80
76996;DHT22;65929;49.062;10.338;2023-08-17T01:09:23;19.50;90.80
76996;DHT22;65929;49.062;10.338;2023-08-17T01:11:39;19.50;90.70
76996;DHT22;65929;49.062;10.338;2023-08-17T01:12:48;19.50;90.70
76996;DHT22;65929;49.062;10.338;2023-08-17T01:13:57;19.40;90.60
76996;DHT22;65929;49.062;10.338;2023-08-17T01:15:05;19.40;90.70
76996;DHT22;65929;49.062;10.338;2023-08-17T01:16:12;19.30;91.20
76996;DHT22;65929;49.062;10.338;2023-08-17T01:17:19;19.30;91.50
76996;DHT22;65929;49.062;10.338;2023-08-17T01:18:25;19.30;91.60
76996;DHT22;65929;49.062;10.338;2023-08-17T01:19:28;19.30;91.70
76996;DHT22;65929;49.062;10.338;2023-08-17T01:20:30;19.30;91.80
76996;DHT22;65929;49.062;10.338;2023-08-17T01:21:38;19.20;92.00
76996;DHT22;65929;49.062;10.338;2023-08-17T01:22:42;19.20;91.80
76996;DHT22;65929;49.062;10.338;2023-08-17T01:23:48;19.20;91.80
76996;DHT22;65929;49.062;10.338;2023-08-17T01:24:49;19.20;92.00
76996;DHT22;65929;49.062;10.338;2023-08-17T01:25:51;19.10;92.10
76996;DHT22;65929;49.062;10.338;2023-08-17T01:26:52;19.10;92.20
76996;DHT22;65929;49.062;10.338;2023-08-17T01:27:53;19.10;92.10
76996;DHT22;65929;49.062;10.338;2023-08-17T01:28:54;19.10;92.30
76996;DHT22;65929;49.062;10.338;2023-08-17T01:29:55;19.00;92.50
76996;DHT22;65929;49.062;10.338;2023-08-17T01:31:00;19.00;92.50
76996;DHT22;65929;49.062;10.338;2023-08-17T01:32:06;19.00;92.50
76996;DHT22;65929;49.062;10.338;2023-08-17T01:33:08;19.00;92.50
76996;DHT22;65929;49.062;10.338;2023-08-17T01:34:13;19.00;92.50
76996;DHT22;65929;49.062;10.338;2023-08-17T01:35:25;18.90;92.50
76996;DHT22;65929;49.062;10.338;2023-08-17T01:36:33;18.90;92.70
76996;DHT22;65929;49.062;10.338;2023-08-17T01:37:38;18.90;92.80
76996;DHT22;65929;49.062;10.338;2023-08-17T01:38:41;18.90;93.10
76996;DHT22;65929;49.062;10.338;2023-08-17T01:39:45;18.80;93.20
76996;DHT22;65929;49.062;10.338;2023-08-17T01:40:50;18.80;93.20
76996;DHT22;65929;49.062;10.338;2023-08-17T01:41:57;18.80;93.00
76996;DHT22;65929;49.062;10.338;2023-08-17T01:42:59;18.70;92.90
76996;DHT22;65929;49.062;10.338;2023-08-17T01:44:00;18.70;93.00
76996;DHT22;65929;49.062;10.338;2023-08-17T01:45:02;18.70;93.00
76996;DHT22;65929;49.062;10.338;2023-08-17T01:46:03;18.70;93.10
76996;DHT22;65929;49.062;10.338;2023-08-17T01:47:04;18.70;93.30
76996;DHT22;65929;49.062;10.338;2023-08-17T01:48:05;18.70;93.20
76996;DHT22;65929;49.062;10.338;2023-08-17T01:49:07;18.70;93.40
76996;DHT22;65929;49.062;10.338;2023-08-17T01:50:08;18.60;93.60
76996;DHT22;65929;49.062;10.338;2023-08-17T01:51:10;18.60;93.80
76996;DHT22;65929;49.062;10.338;2023-08-17T01:52:11;18.60;94.00
76996;DHT22;65929;49.062;10.338;2023-08-17T01:53:12;18.60;93.90
76996;DHT22;65929;49.062;10.338;2023-08-17T01:54:14;18.60;93.70
76996;DHT22;65929;49.062;10.338;2023-08-17T01:55:17;18.50;93.50
76996;DHT22;65929;49.062;10.338;2023-08-17T01:56:18;18.50;93.80
76996;DHT22;65929;49.062;10.338;2023-08-17T01:57:19;18.50;94.00
76996;DHT22;65929;49.062;10.338;2023-08-17T01:58:20;18.50;94.40
76996;DHT22;65929;49.062;10.338;2023-08-17T01:59:21;18.50;94.60
76996;DHT22;65929;49.062;10.338;2023-08-17T02:00:22;18.40;94.70
76996;DHT22;65929;49.062;10.338;2023-08-17T02:01:23;18.40;94.70
76996;DHT22;65929;49.062;10.338;2023-08-17T02:02:24;18.40;94.70
76996;DHT22;65929;49.062;10.338;2023-08-17T02:03:25;18.40;94.50
76996;DHT22;65929;49.062;10.338;2023-08-17T02:04:26;18.30;94.50
76996;DHT22;65929;49.062;10.338;2023-08-17T02:05:27;18.30;94.70
76996;DHT22;65929;49.062;10.338;2023-08-17T02:06:29;18.30;94.80
76996;DHT22;65929;49.062;10.338;2023-08-17T02:07:30;18.30;95.00
76996;DHT22;65929;49.062;10.338;2023-08-17T02:08:33;18.30;95.10
76996;DHT22;65929;49.062;10.338;2023-08-17T02:09:35;18.30;95.30
76996;DHT22;65929;49.062;10.338;2023-08-17T02:10:38;18.30;95.30
76996;DHT22;65929;49.062;10.338;2023-08-17T02:11:39;18.30;95.40
76996;DHT22;65929;49.062;10.338;2023-08-17T02:12:40;18.30;95.40
76996;DHT22;65929;49.062;10.338;2023-08-17T02:13:41;18.20;95.40
76996;DHT22;65929;49.062;10.338;2023-08-17T02:14:42;18.20;95.30
76996;DHT22;65929;49.062;10.338;2023-08-17T02:15:43;18.20;95.10
76996;DHT22;65929;49.062;10.338;2023-08-17T02:16:43;18.20;95.10
76996;DHT22;65929;49.062;10.338;2023-08-17T02:17:44;18.20;95.20
76996;DHT22;65929;49.062;10.338;2023-08-17T02:18:45;18.20;95.30
76996;DHT22;65929;49.062;10.338;2023-08-17T02:19:47;18.20;95.40
76996;DHT22;65929;49.062;10.338;2023-08-17T02:20:48;18.20;95.30
76996;DHT22;65929;49.062;10.338;2023-08-17T02:21:49;18.20;95.30
76996;DHT22;65929;49.062;10.338;2023-08-17T02:22:50;18.10;95.30
76996;DHT22;65929;49.062;10.338;2023-08-17T02:23:51;18.20;95.50
76996;DHT22;65929;49.062;10.338;2023-08-17T02:24:52;18.20;95.50
76996;DHT22;65929;49.062;10.338;2023-08-17T02:25:54;18.20;95.50
76996;DHT22;65929;49.062;10.338;2023-08-17T02:26:55;18.10;95.50
76996;DHT22;65929;49.062;10.338;2023-08-17T02:27:56;18.20;95.70
76996;DHT22;65929;49.062;10.338;2023-08-17T02:28:57;18.10;95.70
76996;DHT22;65929;49.062;10.338;2023-08-17T02:29:58;18.10;95.60
76996;DHT22;65929;49.062;10.338;2023-08-17T02:30:59;18.10;95.70
76996;DHT22;65929;49.062;10.338;2023-08-17T02:32:00;18.10;95.70
76996;DHT22;65929;49.062;10.338;2023-08-17T02:33:01;18.10;95.70
76996;DHT22;65929;49.062;10.338;2023-08-17T02:34:02;18.10;95.80
76996;DHT22;65929;49.062;10.338;2023-08-17T02:35:06;18.10;95.80
76996;DHT22;65929;49.062;10.338;2023-08-17T02:36:07;18.10;95.80
76996;DHT22;65929;49.062;10.338;2023-08-17T02:37:08;18.10;95.80
76996;DHT22;65929;49.062;10.338;2023-08-17T02:38:09;18.10;95.80
76996;DHT22;65929;49.062;10.338;2023-08-17T02:39:10;18.00;95.70
76996;DHT22;65929;49.062;10.338;2023-08-17T02:40:11;18.00;95.70
76996;DHT22;65929;49.062;10.338;2023-08-17T02:41:13;18.00;95.70
76996;DHT22;65929;49.062;10.338;2023-08-17T02:42:14;18.00;95.60
76996;DHT22;65929;49.062;10.338;2023-08-17T02:43:16;18.00;95.60
76996;DHT22;65929;49.062;10.338;2023-08-17T02:44:17;18.00;95.70
76996;DHT22;65929;49.062;10.338;2023-08-17T02:45:18;18.00;95.80
76996;DHT22;65929;49.062;10.338;2023-08-17T02:46:18;18.00;95.90
76996;DHT22;65929;49.062;10.338;2023-08-17T02:47:19;18.00;95.80
76996;DHT22;65929;49.062;10.338;2023-08-17T02:48:20;17.90;95.70
76996;DHT22;65929;49.062;10.338;2023-08-17T02:49:21;17.90;95.70
76996;DHT22;65929;49.062;10.338;2023-08-17T02:50:22;17.80;95.80
76996;DHT22;65929;49.062;10.338;2023-08-17T02:51:23;17.80;96.00
76996;DHT22;65929;49.062;10.338;2023-08-17T02:52:24;17.90;96.10
76996;DHT22;65929;49.062;10.338;2023-08-17T02:53:25;17.80;96.20
76996;DHT22;65929;49.062;10.338;2023-08-17T02:54:26;17.80;96.20
76996;DHT22;65929;49.062;10.338;2023-08-17T02:55:26;17.80;96.20
76996;DHT22;65929;49.062;10.338;2023-08-17T02:56:29;17.80;96.20
76996;DHT22;65929;49.062;10.338;2023-08-17T02:57:29;17.80;96.10
76996;DHT22;65929;49.062;10.338;2023-08-17T02:58:30;17.80;96.00
76996;DHT22;65929;49.062;10.338;2023-08-17T02:59:31;17.80;96.00
76996;DHT22;65929;49.062;10.338;2023-08-17T03:00:32;17.70;96.10
76996;DHT22;65929;49.062;10.338;2023-08-17T03:01:33;17.70;96.20
76996;DHT22;65929;49.062;10.338;2023-08-17T03:02:34;17.60;96.20
76996;DHT22;65929;49.062;10.338;2023-08-17T03:03:35;17.60;96.20
76996;DHT22;65929;49.062;10.338;2023-08-17T03:04:36;17.60;96.20
76996;DHT22;65929;49.062;10.338;2023-08-17T03:05:36;17.60;96.30
76996;DHT22;65929;49.062;10.338;2023-08-17T03:06:37;17.60;96.50
76996;DHT22;65929;49.062;10.338;2023-08-17T03:07:38;17.60;96.50
76996;DHT22;65929;49.062;10.338;2023-08-17T03:08:39;17.60;96.60
76996;DHT22;65929;49.062;10.338;2023-08-17T03:09:40;17.60;96.60
76996;DHT22;65929;49.062;10.338;2023-08-17T03:10:40;17.60;96.60
76996;DHT22;65929;49.062;10.338;2023-08-17T03:11:43;17.60;96.70
76996;DHT22;65929;49.062;10.338;2023-08-17T03:12:43;17.60;96.60
76996;DHT22;65929;49.062;10.338;2023-08-17T03:13:44;17.60;96.60
76996;DHT22;65929;49.062;10.338;2023-08-17T03:14:47;17.50;96.50
76996;DHT22;65929;49.062;10.338;2023-08-17T03:15:48;17.50;96.50
76996;DHT22;65929;49.062;10.338;2023-08-17T03:16:49;17.50;96.50
76996;DHT22;65929;49.062;10.338;2023-08-17T03:17:50;17.50;96.50
76996;DHT22;65929;49.062;10.338;2023-08-17T03:18:51;17.50;96.50
76996;DHT22;65929;49.062;10.338;2023-08-17T03:19:51;17.50;96.50
76996;DHT22;65929;49.062;10.338;2023-08-17T03:20:52;17.50;96.50
76996;DHT22;65929;49.062;10.338;2023-08-17T03:21:53;17.50;96.60
76996;DHT22;65929;49.062;10.338;2023-08-17T03:22:54;17.50;96.60
76996;DHT22;65929;49.062;10.338;2023-08-17T03:23:55;17.50;96.50
76996;DHT22;65929;49.062;10.338;2023-08-17T03:24:56;17.50;96.50
76996;DHT22;65929;49.062;10.338;2023-08-17T03:25:57;17.40;96.40
76996;DHT22;65929;49.062;10.338;2023-08-17T03:26:59;17.40;96.40
76996;DHT22;65929;49.062;10.338;2023-08-17T03:28:00;17.40;96.40
76996;DHT22;65929;49.062;10.338;2023-08-17T03:29:00;17.40;96.30
76996;DHT22;65929;49.062;10.338;2023-08-17T03:30:01;17.40;96.40
76996;DHT22;65929;49.062;10.338;2023-08-17T03:31:02;17.30;96.50
76996;DHT22;65929;49.062;10.338;2023-08-17T03:32:04;17.30;96.40
76996;DHT22;65929;49.062;10.338;2023-08-17T03:33:04;17.30;96.40
76996;DHT22;65929;49.062;10.338;2023-08-17T03:34:05;17.20;96.40
76996;DHT22;65929;49.062;10.338;2023-08-17T03:35:07;17.20;96.40
76996;DHT22;65929;49.062;10.338;2023-08-17T03:36:08;17.20;96.40
76996;DHT22;65929;49.062;10.338;2023-08-17T03:37:09;17.20;96.40
76996;DHT22;65929;49.062;10.338;2023-08-17T03:38:09;17.20;96.50
76996;DHT22;65929;49.062;10.338;2023-08-17T03:39:10;17.20;96.40
76996;DHT22;65929;49.062;10.338;2023-08-17T03:40:11;17.20;96.40
76996;DHT22;65929;49.062;10.338;2023-08-17T03:41:12;17.20;96.40
76996;DHT22;65929;49.062;10.338;2023-08-17T03:42:14;17.20;96.40
76996;DHT22;65929;49.062;10.338;2023-08-17T03:43:15;17.10;96.40
76996;DHT22;65929;49.062;10.338;2023-08-17T03:44:16;17.10;96.50
76996;DHT22;65929;49.062;10.338;2023-08-17T03:45:17;17.20;96.50
76996;DHT22;65929;49.062;10.338;2023-08-17T03:46:18;17.20;96.70
76996;DHT22;65929;49.062;10.338;2023-08-17T03:47:19;17.20;96.80
76996;DHT22;65929;49.062;10.338;2023-08-17T03:48:19;17.20;96.80
76996;DHT22;65929;49.062;10.338;2023-08-17T03:49:22;17.20;96.90
76996;DHT22;65929;49.062;10.338;2023-08-17T03:50:25;17.20;96.90
76996;DHT22;65929;49.062;10.338;2023-08-17T03:51:26;17.20;96.90
76996;DHT22;65929;49.062;10.338;2023-08-17T03:52:27;17.20;96.90
76996;DHT22;65929;49.062;10.338;2023-08-17T03:53:28;17.10;96.90
76996;DHT22;65929;49.062;10.338;2023-08-17T03:54:28;17.10;96.90
76996;DHT22;65929;49.062;10.338;2023-08-17T03:55:29;17.20;97.00
76996;DHT22;65929;49.062;10.338;2023-08-17T03:56:30;17.20;96.90
76996;DHT22;65929;49.062;10.338;2023-08-17T03:57:33;17.20;97.00
76996;DHT22;65929;49.062;10.338;2023-08-17T03:58:33;17.20;97.00
76996;DHT22;65929;49.062;10.338;2023-08-17T03:59:35;17.20;97.00
76996;DHT22;65929;49.062;10.338;2023-08-17T04:00:36;17.20;97.00
76996;DHT22;65929;49.062;10.338;2023-08-17T04:01:36;17.20;97.10
76996;DHT22;65929;49.062;10.338;2023-08-17T04:02:37;17.20;97.00
76996;DHT22;65929;49.062;10.338;2023-08-17T04:03:38;17.20;97.10
76996;DHT22;65929;49.062;10.338;2023-08-17T04:04:39;17.20;97.10
76996;DHT22;65929;49.062;10.338;2023-08-17T04:05:40;17.20;97.10
76996;DHT22;65929;49.062;10.338;2023-08-17T04:06:40;17.20;97.20
76996;DHT22;65929;49.062;10.338;2023-08-17T04:07:41;17.20;97.20
76996;DHT22;65929;49.062;10.338;2023-08-17T04:08:42;17.20;97.20
76996;DHT22;65929;49.062;10.338;2023-08-17T04:09:44;17.20;97.10
76996;DHT22;65929;49.062;10.338;2023-08-17T04:10:45;17.20;96.90
76996;DHT22;65929;49.062;10.338;2023-08-17T04:11:46;17.20;96.80
76996;DHT22;65929;49.062;10.338;2023-08-17T04:12:48;17.20;96.70
76996;DHT22;65929;49.062;10.338;2023-08-17T04:13:49;17.10;96.70
76996;DHT22;65929;49.062;10.338;2023-08-17T04:14:50;17.00;96.60
76996;DHT22;65929;49.062;10.338;2023-08-17T04:15:52;17.00;96.50
76996;DHT22;65929;49.062;10.338;2023-08-17T04:16:53;17.00;96.60
76996;DHT22;65929;49.062;10.338;2023-08-17T04:17:54;17.00;96.80
76996;DHT22;65929;49.062;10.338;2023-08-17T04:18:55;17.10;96.90
76996;DHT22;65929;49.062;10.338;2023-08-17T04:19:55;17.10;96.90
76996;DHT22;65929;49.062;10.338;2023-08-17T04:20:56;17.10;96.90
76996;DHT22;65929;49.062;10.338;2023-08-17T04:21:57;17.10;96.90
76996;DHT22;65929;49.062;10.338;2023-08-17T04:22:58;17.00;96.70
76996;DHT22;65929;49.062;10.338;2023-08-17T04:23:59;17.00;96.70
76996;DHT22;65929;49.062;10.338;2023-08-17T04:25:00;17.00;96.70
76996;DHT22;65929;49.062;10.338;2023-08-17T04:26:01;17.00;96.70
76996;DHT22;65929;49.062;10.338;2023-08-17T04:27:02;17.00;96.90
76996;DHT22;65929;49.062;10.338;2023-08-17T04:28:05;17.00;96.90
76996;DHT22;65929;49.062;10.338;2023-08-17T04:29:06;17.00;97.00
76996;DHT22;65929;49.062;10.338;2023-08-17T04:30:08;17.00;97.00
76996;DHT22;65929;49.062;10.338;2023-08-17T04:31:09;17.00;96.90
76996;DHT22;65929;49.062;10.338;2023-08-17T04:32:14;17.00;96.90
76996;DHT22;65929;49.062;10.338;2023-08-17T04:33:15;17.00;96.90
76996;DHT22;65929;49.062;10.338;2023-08-17T04:34:16;17.00;96.90
76996;DHT22;65929;49.062;10.338;2023-08-17T04:35:17;17.00;96.90
76996;DHT22;65929;49.062;10.338;2023-08-17T04:36:18;17.00;96.90
76996;DHT22;65929;49.062;10.338;2023-08-17T04:37:18;17.00;96.90
76996;DHT22;65929;49.062;10.338;2023-08-17T04:38:19;17.00;96.90
76996;DHT22;65929;49.062;10.338;2023-08-17T04:39:20;17.00;96.90
76996;DHT22;65929;49.062;10.338;2023-08-17T04:40:21;16.90;96.90
76996;DHT22;65929;49.062;10.338;2023-08-17T04:41:22;16.90;96.90
76996;DHT22;65929;49.062;10.338;2023-08-17T04:42:22;16.90;96.90
76996;DHT22;65929;49.062;10.338;2023-08-17T04:43:26;16.90;96.90
76996;DHT22;65929;49.062;10.338;2023-08-17T04:44:27;16.90;96.90
76996;DHT22;65929;49.062;10.338;2023-08-17T04:45:28;16.90;96.90
76996;DHT22;65929;49.062;10.338;2023-08-17T04:46:29;16.90;96.90
76996;DHT22;65929;49.062;10.338;2023-08-17T04:47:29;16.90;96.90
76996;DHT22;65929;49.062;10.338;2023-08-17T04:48:30;16.90;96.90
76996;DHT22;65929;49.062;10.338;2023-08-17T04:49:31;16.90;96.80
76996;DHT22;65929;49.062;10.338;2023-08-17T04:50:32;16.90;96.90
76996;DHT22;65929;49.062;10.338;2023-08-17T04:51:36;16.90;96.90
76996;DHT22;65929;49.062;10.338;2023-08-17T04:52:36;16.90;97.00
76996;DHT22;65929;49.062;10.338;2023-08-17T04:53:37;16.90;97.00
76996;DHT22;65929;49.062;10.338;2023-08-17T04:54:38;17.00;97.00
76996;DHT22;65929;49.062;10.338;2023-08-17T04:55:39;17.00;97.10
76996;DHT22;65929;49.062;10.338;2023-08-17T04:56:39;17.00;97.00
76996;DHT22;65929;49.062;10.338;2023-08-17T04:57:40;17.00;97.00
76996;DHT22;65929;49.062;10.338;2023-08-17T04:58:42;17.00;97.00
76996;DHT22;65929;49.062;10.338;2023-08-17T04:59:43;17.00;96.90
76996;DHT22;65929;49.062;10.338;2023-08-17T05:00:44;17.00;96.90
76996;DHT22;65929;49.062;10.338;2023-08-17T05:01:45;17.00;97.00
76996;DHT22;65929;49.062;10.338;2023-08-17T05:02:46;17.10;97.00
76996;DHT22;65929;49.062;10.338;2023-08-17T05:03:46;17.10;97.00
76996;DHT22;65929;49.062;10.338;2023-08-17T05:04:47;17.10;96.90
76996;DHT22;65929;49.062;10.338;2023-08-17T05:05:48;17.10;96.90
76996;DHT22;65929;49.062;10.338;2023-08-17T05:06:49;17.20;96.90
76996;DHT22;65929;49.062;10.338;2023-08-17T05:07:50;17.20;96.90
76996;DHT22;65929;49.062;10.338;2023-08-17T05:08:52;17.20;96.90
76996;DHT22;65929;49.062;10.338;2023-08-17T05:09:53;17.20;96.80
76996;DHT22;65929;49.062;10.338;2023-08-17T05:10:54;17.20;96.80
76996;DHT22;65929;49.062;10.338;2023-08-17T05:11:55;17.20;96.80
76996;DHT22;65929;49.062;10.338;2023-08-17T05:12:56;17.30;96.80
76996;DHT22;65929;49.062;10.338;2023-08-17T05:13:58;17.30;96.70
76996;DHT22;65929;49.062;10.338;2023-08-17T05:14:59;17.30;96.60
76996;DHT22;65929;49.062;10.338;2023-08-17T05:15:59;17.30;96.60
76996;DHT22;65929;49.062;10.338;2023-08-17T05:17:00;17.40;96.50
76996;DHT22;65929;49.062;10.338;2023-08-17T05:18:01;17.40;96.50
76996;DHT22;65929;49.062;10.338;2023-08-17T05:19:02;17.40;96.60
76996;DHT22;65929;49.062;10.338;2023-08-17T05:20:04;17.50;96.50
76996;DHT22;65929;49.062;10.338;2023-08-17T05:21:05;17.50;96.40
76996;DHT22;65929;49.062;10.338;2023-08-17T05:22:11;17.50;96.30
76996;DHT22;65929;49.062;10.338;2023-08-17T05:23:12;17.50;96.30
76996;DHT22;65929;49.062;10.338;2023-08-17T05:24:13;17.50;96.20
76996;DHT22;65929;49.062;10.338;2023-08-17T05:25:14;17.60;96.20
76996;DHT22;65929;49.062;10.338;2023-08-17T05:26:23;17.60;96.10
76996;DHT22;65929;49.062;10.338;2023-08-17T05:27:24;17.60;96.00
76996;DHT22;65929;49.062;10.338;2023-08-17T05:28:25;17.60;95.80
76996;DHT22;65929;49.062;10.338;2023-08-17T05:29:27;17.70;95.70
76996;DHT22;65929;49.062;10.338;2023-08-17T05:30:28;17.80;95.50
76996;DHT22;65929;49.062;10.338;2023-08-17T05:31:29;17.80;95.40
76996;DHT22;65929;49.062;10.338;2023-08-17T05:32:30;17.80;95.30
76996;DHT22;65929;49.062;10.338;2023-08-17T05:33:31;17.80;95.30
76996;DHT22;65929;49.062;10.338;2023-08-17T05:34:53;17.80;95.20
76996;DHT22;65929;49.062;10.338;2023-08-17T05:37:42;17.80;95.20
76996;DHT22;65929;49.062;10.338;2023-08-17T05:38:51;17.90;95.10
76996;DHT22;65929;49.062;10.338;2023-08-17T05:39:52;17.90;95.00
76996;DHT22;65929;49.062;10.338;2023-08-17T05:40:57;17.90;95.00
76996;DHT22;65929;49.062;10.338;2023-08-17T05:41:58;18.00;95.00
76996;DHT22;65929;49.062;10.338;2023-08-17T05:42:59;18.00;95.10
76996;DHT22;65929;49.062;10.338;2023-08-17T05:44:03;18.00;95.10
76996;DHT22;65929;49.062;10.338;2023-08-17T05:45:09;18.00;95.00
76996;DHT22;65929;49.062;10.338;2023-08-17T05:46:10;18.00;94.90
76996;DHT22;65929;49.062;10.338;2023-08-17T05:47:11;18.00;94.70
76996;DHT22;65929;49.062;10.338;2023-08-17T05:48:13;18.10;94.60
76996;DHT22;65929;49.062;10.338;2023-08-17T05:49:14;18.10;94.40
76996;DHT22;65929;49.062;10.338;2023-08-17T05:50:15;18.10;94.40
76996;DHT22;65929;49.062;10.338;2023-08-17T05:51:16;18.10;94.40
76996;DHT22;65929;49.062;10.338;2023-08-17T05:52:16;18.20;94.40
76996;DHT22;65929;49.062;10.338;2023-08-17T05:53:17;18.20;94.40
76996;DHT22;65929;49.062;10.338;2023-08-17T05:54:18;18.20;94.20
76996;DHT22;65929;49.062;10.338;2023-08-17T05:55:19;18.20;94.30
76996;DHT22;65929;49.062;10.338;2023-08-17T05:56:20;18.20;94.30
76996;DHT22;65929;49.062;10.338;2023-08-17T05:57:21;18.30;94.20
76996;DHT22;65929;49.062;10.338;2023-08-17T05:58:22;18.30;94.10
76996;DHT22;65929;49.062;10.338;2023-08-17T05:59:22;18.30;94.00
76996;DHT22;65929;49.062;10.338;2023-08-17T06:00:25;18.30;94.00
76996;DHT22;65929;49.062;10.338;2023-08-17T06:01:26;18.30;94.10
76996;DHT22;65929;49.062;10.338;2023-08-17T06:02:26;18.30;94.20
76996;DHT22;65929;49.062;10.338;2023-08-17T06:03:27;18.40;94.30
76996;DHT22;65929;49.062;10.338;2023-08-17T06:04:28;18.40;94.40
76996;DHT22;65929;49.062;10.338;2023-08-17T06:05:29;18.40;94.40
76996;DHT22;65929;49.062;10.338;2023-08-17T06:06:30;18.40;94.20
76996;DHT22;65929;49.062;10.338;2023-08-17T06:07:31;18.50;94.10
76996;DHT22;65929;49.062;10.338;2023-08-17T06:08:31;18.50;93.90
76996;DHT22;65929;49.062;10.338;2023-08-17T06:09:32;18.50;93.60
76996;DHT22;65929;49.062;10.338;2023-08-17T06:10:33;18.50;93.70
76996;DHT22;65929;49.062;10.338;2023-08-17T06:11:34;18.50;93.70
76996;DHT22;65929;49.062;10.338;2023-08-17T06:12:35;18.60;93.80
76996;DHT22;65929;49.062;10.338;2023-08-17T06:13:36;18.60;94.00
76996;DHT22;65929;49.062;10.338;2023-08-17T06:14:36;18.60;94.00
76996;DHT22;65929;49.062;10.338;2023-08-17T06:15:39;18.70;94.00
76996;DHT22;65929;49.062;10.338;2023-08-17T06:16:40;18.70;94.10
76996;DHT22;65929;49.062;10.338;2023-08-17T06:17:40;18.70;93.80
76996;DHT22;65929;49.062;10.338;2023-08-17T06:18:42;18.70;93.70
76996;DHT22;65929;49.062;10.338;2023-08-17T06:19:43;18.80;93.60
76996;DHT22;65929;49.062;10.338;2023-08-17T06:20:45;18.80;93.60
76996;DHT22;65929;49.062;10.338;2023-08-17T06:21:47;18.80;93.50
76996;DHT22;65929;49.062;10.338;2023-08-17T06:22:48;18.90;93.50
76996;DHT22;65929;49.062;10.338;2023-08-17T06:23:52;18.90;93.60
76996;DHT22;65929;49.062;10.338;2023-08-17T06:24:53;19.00;93.60
76996;DHT22;65929;49.062;10.338;2023-08-17T06:25:56;19.00;93.50